sensor_id;sensor_type;location;lat;lon;timestamp;P1;durP1;ratioP1;P2;durP2;ratioP2
49834;SDS011;35729;52.090;13.162;2023-09-07T00:00:51;9.85;;;8.25;;
49834;SDS011;35729;52.090;13.162;2023-09-07T00:03:20;10.23;;;8.82;;
49834;SDS011;35729;52.090;13.162;2023-09-07T00:05:48;9.20;;;8.30;;
49834;SDS011;35729;52.090;13.162;2023-09-07T00:08:17;8.65;;;7.82;;
49834;SDS011;35729;52.090;13.162;2023-09-07T00:10:45;10.32;;;8.43;;
49834;SDS011;35729;52.090;13.162;2023-09-07T00:13:14;10.95;;;8.85;;
49834;SDS011;35729;52.090;13.162;2023-09-07T00:15:42;12.73;;;8.95;;
49834;SDS011;35729;52.090;13.162;2023-09-07T00:18:13;10.73;;;8.73;;
49834;SDS011;35729;52.090;13.162;2023-09-07T00:20:42;9.95;;;8.25;;
49834;SDS011;35729;52.090;13.162;2023-09-07T00:23:10;9.75;;;8.15;;
49834;SDS011;35729;52.090;13.162;2023-09-07T00:25:39;10.25;;;8.43;;
49834;SDS011;35729;52.090;13.162;2023-09-07T00:28:07;10.82;;;8.63;;
49834;SDS011;35729;52.090;13.162;2023-09-07T00:30:36;9.48;;;8.48;;
49834;SDS011;35729;52.090;13.162;2023-09-07T00:33:04;9.98;;;8.80;;
49834;SDS011;35729;52.090;13.162;2023-09-07T00:35:35;10.00;;;9.00;;
49834;SDS011;35729;52.090;13.162;2023-09-07T00:38:04;9.13;;;8.23;;
49834;SDS011;35729;52.090;13.162;2023-09-07T00:40:33;10.55;;;8.80;;
49834;SDS011;35729;52.090;13.162;2023-09-07T00:43:02;9.40;;;7.75;;
49834;SDS011;35729;52.090;13.162;2023-09-07T00:45:32;10.43;;;8.15;;
49834;SDS011;35729;52.090;13.162;2023-09-07T00:48:01;9.48;;;8.05;;
49834;SDS011;35729;52.090;13.162;2023-09-07T00:50:29;9.13;;;8.23;;
49834;SDS011;35729;52.090;13.162;2023-09-07T00:53:01;8.80;;;7.90;;
49834;SDS011;35729;52.090;13.162;2023-09-07T00:55:32;9.80;;;8.80;;
49834;SDS011;35729;52.090;13.162;2023-09-07T00:58:01;11.88;;;8.57;;
49834;SDS011;35729;52.090;13.162;2023-09-07T01:00:30;9.82;;;8.65;;
49834;SDS011;35729;52.090;13.162;2023-09-07T01:02:59;10.45;;;9.32;;
49834;SDS011;35729;52.090;13.162;2023-09-07T01:05:30;9.60;;;8.60;;
49834;SDS011;35729;52.090;13.162;2023-09-07T01:08:07;10.10;;;8.98;;
49834;SDS011;35729;52.090;13.162;2023-09-07T01:10:42;9.52;;;8.63;;
49834;SDS011;35729;52.090;13.162;2023-09-07T01:13:11;9.70;;;8.70;;
49834;SDS011;35729;52.090;13.162;2023-09-07T01:15:40;10.13;;;9.13;;
49834;SDS011;35729;52.090;13.162;2023-09-07T01:18:08;9.77;;;8.77;;
49834;SDS011;35729;52.090;13.162;2023-09-07T01:20:38;9.88;;;8.60;;
49834;SDS011;35729;52.090;13.162;2023-09-07T01:23:11;12.43;;;9.05;;
49834;SDS011;35729;52.090;13.162;2023-09-07T01:25:40;10.50;;;9.43;;
49834;SDS011;35729;52.090;13.162;2023-09-07T01:28:10;9.85;;;8.85;;
49834;SDS011;35729;52.090;13.162;2023-09-07T01:30:40;10.30;;;9.30;;
49834;SDS011;35729;52.090;13.162;2023-09-07T01:33:08;11.05;;;9.07;;
49834;SDS011;35729;52.090;13.162;2023-09-07T01:35:37;10.63;;;9.40;;
49834;SDS011;35729;52.090;13.162;2023-09-07T01:38:07;9.90;;;8.95;;
49834;SDS011;35729;52.090;13.162;2023-09-07T01:40:38;13.27;;;9.75;;
49834;SDS011;35729;52.090;13.162;2023-09-07T01:43:06;10.60;;;9.50;;
49834;SDS011;35729;52.090;13.162;2023-09-07T01:45:35;10.10;;;8.32;;
49834;SDS011;35729;52.090;13.162;2023-09-07T01:48:05;12.05;;;9.43;;
49834;SDS011;35729;52.090;13.162;2023-09-07T01:50:35;9.65;;;8.75;;
49834;SDS011;35729;52.090;13.162;2023-09-07T01:53:04;11.05;;;9.85;;
49834;SDS011;35729;52.090;13.162;2023-09-07T01:55:33;10.98;;;9.98;;
49834;SDS011;35729;52.090;13.162;2023-09-07T01:58:04;11.43;;;9.77;;
49834;SDS011;35729;52.090;13.162;2023-09-07T02:00:35;10.63;;;9.52;;
49834;SDS011;35729;52.090;13.162;2023-09-07T02:03:04;12.15;;;10.30;;
49834;SDS011;35729;52.090;13.162;2023-09-07T02:05:33;12.20;;;9.32;;
49834;SDS011;35729;52.090;13.162;2023-09-07T02:08:02;12.48;;;9.95;;
49834;SDS011;35729;52.090;13.162;2023-09-07T02:10:31;12.63;;;9.75;;
49834;SDS011;35729;52.090;13.162;2023-09-07T02:12:59;10.40;;;9.40;;
49834;SDS011;35729;52.090;13.162;2023-09-07T02:15:31;11.38;;;10.27;;
49834;SDS011;35729;52.090;13.162;2023-09-07T02:18:00;14.50;;;9.57;;
49834;SDS011;35729;52.090;13.162;2023-09-07T02:20:28;11.52;;;9.40;;
49834;SDS011;35729;52.090;13.162;2023-09-07T02:22:57;10.48;;;9.23;;
49834;SDS011;35729;52.090;13.162;2023-09-07T02:25:26;11.43;;;9.23;;
49834;SDS011;35729;52.090;13.162;2023-09-07T02:27:55;10.23;;;9.32;;
49834;SDS011;35729;52.090;13.162;2023-09-07T02:30:24;11.57;;;9.73;;
49834;SDS011;35729;52.090;13.162;2023-09-07T02:32:55;10.65;;;9.45;;
49834;SDS011;35729;52.090;13.162;2023-09-07T02:35:24;10.65;;;9.60;;
49834;SDS011;35729;52.090;13.162;2023-09-07T02:37:52;10.65;;;9.57;;
49834;SDS011;35729;52.090;13.162;2023-09-07T02:40:20;12.13;;;10.15;;
49834;SDS011;35729;52.090;13.162;2023-09-07T02:42:49;10.40;;;9.23;;
49834;SDS011;35729;52.090;13.162;2023-09-07T02:45:17;11.23;;;10.10;;
49834;SDS011;35729;52.090;13.162;2023-09-07T02:47:46;11.60;;;9.32;;
49834;SDS011;35729;52.090;13.162;2023-09-07T02:50:18;10.88;;;9.73;;
49834;SDS011;35729;52.090;13.162;2023-09-07T02:52:46;11.40;;;9.65;;
49834;SDS011;35729;52.090;13.162;2023-09-07T02:55:15;12.35;;;10.00;;
49834;SDS011;35729;52.090;13.162;2023-09-07T02:57:44;11.88;;;9.63;;
49834;SDS011;35729;52.090;13.162;2023-09-07T03:00:12;10.75;;;9.75;;
49834;SDS011;35729;52.090;13.162;2023-09-07T03:02:42;10.60;;;9.60;;
49834;SDS011;35729;52.090;13.162;2023-09-07T03:05:11;12.32;;;10.20;;
49834;SDS011;35729;52.090;13.162;2023-09-07T03:07:44;11.27;;;9.45;;
49834;SDS011;35729;52.090;13.162;2023-09-07T03:12:42;11.25;;;9.52;;
49834;SDS011;35729;52.090;13.162;2023-09-07T03:15:10;10.80;;;9.70;;
49834;SDS011;35729;52.090;13.162;2023-09-07T03:17:39;10.98;;;9.90;;
49834;SDS011;35729;52.090;13.162;2023-09-07T03:20:08;11.25;;;10.05;;
49834;SDS011;35729;52.090;13.162;2023-09-07T03:22:43;11.18;;;10.02;;
49834;SDS011;35729;52.090;13.162;2023-09-07T03:25:13;11.85;;;9.93;;
49834;SDS011;35729;52.090;13.162;2023-09-07T03:27:41;11.43;;;10.23;;
49834;SDS011;35729;52.090;13.162;2023-09-07T03:30:10;13.40;;;10.77;;
49834;SDS011;35729;52.090;13.162;2023-09-07T03:32:39;12.30;;;10.98;;
49834;SDS011;35729;52.090;13.162;2023-09-07T03:35:08;11.32;;;10.10;;
49834;SDS011;35729;52.090;13.162;2023-09-07T03:37:36;11.63;;;10.35;;
49834;SDS011;35729;52.090;13.162;2023-09-07T03:40:08;14.77;;;10.90;;
49834;SDS011;35729;52.090;13.162;2023-09-07T03:42:37;11.35;;;10.18;;
49834;SDS011;35729;52.090;13.162;2023-09-07T03:45:05;10.73;;;9.70;;
49834;SDS011;35729;52.090;13.162;2023-09-07T03:47:34;12.23;;;10.88;;
49834;SDS011;35729;52.090;13.162;2023-09-07T03:50:03;11.68;;;10.23;;
49834;SDS011;35729;52.090;13.162;2023-09-07T03:52:32;13.70;;;10.32;;
49834;SDS011;35729;52.090;13.162;2023-09-07T03:55:01;12.50;;;11.23;;
49834;SDS011;35729;52.090;13.162;2023-09-07T03:57:32;12.02;;;10.65;;
49834;SDS011;35729;52.090;13.162;2023-09-07T04:00:00;12.23;;;10.88;;
49834;SDS011;35729;52.090;13.162;2023-09-07T04:02:33;12.70;;;11.40;;
49834;SDS011;35729;52.090;13.162;2023-09-07T04:05:01;11.40;;;10.30;;
49834;SDS011;35729;52.090;13.162;2023-09-07T04:07:30;11.02;;;9.93;;
49834;SDS011;35729;52.090;13.162;2023-09-07T04:09:58;11.38;;;10.23;;
49834;SDS011;35729;52.090;13.162;2023-09-07T04:12:28;11.77;;;10.65;;
49834;SDS011;35729;52.090;13.162;2023-09-07T04:14:59;13.80;;;11.00;;
49834;SDS011;35729;52.090;13.162;2023-09-07T04:17:28;14.77;;;10.60;;
49834;SDS011;35729;52.090;13.162;2023-09-07T04:20:05;13.10;;;10.07;;
49834;SDS011;35729;52.090;13.162;2023-09-07T04:22:36;11.45;;;10.25;;
49834;SDS011;35729;52.090;13.162;2023-09-07T04:25:06;11.68;;;10.45;;
49834;SDS011;35729;52.090;13.162;2023-09-07T04:27:35;13.20;;;11.63;;
49834;SDS011;35729;52.090;13.162;2023-09-07T04:30:07;16.33;;;13.13;;
49834;SDS011;35729;52.090;13.162;2023-09-07T04:32:36;14.38;;;10.77;;
49834;SDS011;35729;52.090;13.162;2023-09-07T04:35:05;14.57;;;10.30;;
49834;SDS011;35729;52.090;13.162;2023-09-07T04:37:34;12.23;;;10.10;;
49834;SDS011;35729;52.090;13.162;2023-09-07T04:40:05;12.38;;;10.70;;
49834;SDS011;35729;52.090;13.162;2023-09-07T04:42:34;15.18;;;10.82;;
49834;SDS011;35729;52.090;13.162;2023-09-07T04:45:06;12.20;;;10.60;;
49834;SDS011;35729;52.090;13.162;2023-09-07T04:47:35;13.10;;;11.32;;
49834;SDS011;35729;52.090;13.162;2023-09-07T04:50:05;13.27;;;10.80;;
49834;SDS011;35729;52.090;13.162;2023-09-07T04:52:34;11.25;;;10.15;;
49834;SDS011;35729;52.090;13.162;2023-09-07T04:55:03;13.52;;;11.70;;
49834;SDS011;35729;52.090;13.162;2023-09-07T04:57:31;12.52;;;10.98;;
49834;SDS011;35729;52.090;13.162;2023-09-07T05:00:00;14.68;;;11.38;;
49834;SDS011;35729;52.090;13.162;2023-09-07T05:02:31;14.23;;;10.98;;
49834;SDS011;35729;52.090;13.162;2023-09-07T05:05:03;12.05;;;10.85;;
49834;SDS011;35729;52.090;13.162;2023-09-07T05:07:32;13.80;;;11.10;;
49834;SDS011;35729;52.090;13.162;2023-09-07T05:10:01;14.27;;;11.27;;
49834;SDS011;35729;52.090;13.162;2023-09-07T05:12:29;13.82;;;11.63;;
49834;SDS011;35729;52.090;13.162;2023-09-07T05:14:58;15.52;;;12.48;;
49834;SDS011;35729;52.090;13.162;2023-09-07T05:17:26;16.05;;;12.80;;
49834;SDS011;35729;52.090;13.162;2023-09-07T05:19:57;13.45;;;12.00;;
49834;SDS011;35729;52.090;13.162;2023-09-07T05:22:32;13.57;;;12.15;;
49834;SDS011;35729;52.090;13.162;2023-09-07T05:25:05;14.93;;;12.68;;
49834;SDS011;35729;52.090;13.162;2023-09-07T05:27:40;14.00;;;12.52;;
49834;SDS011;35729;52.090;13.162;2023-09-07T05:30:16;14.82;;;13.27;;
49834;SDS011;35729;52.090;13.162;2023-09-07T05:32:45;14.60;;;13.10;;
49834;SDS011;35729;52.090;13.162;2023-09-07T05:35:16;26.40;;;21.58;;
49834;SDS011;35729;52.090;13.162;2023-09-07T05:37:45;17.75;;;15.75;;
49834;SDS011;35729;52.090;13.162;2023-09-07T05:40:14;16.38;;;13.88;;
49834;SDS011;35729;52.090;13.162;2023-09-07T05:42:43;16.83;;;14.15;;
49834;SDS011;35729;52.090;13.162;2023-09-07T05:45:11;18.90;;;14.55;;
49834;SDS011;35729;52.090;13.162;2023-09-07T05:47:40;19.38;;;15.40;;
49834;SDS011;35729;52.090;13.162;2023-09-07T05:50:08;15.68;;;14.07;;
49834;SDS011;35729;52.090;13.162;2023-09-07T05:52:40;14.82;;;13.30;;
49834;SDS011;35729;52.090;13.162;2023-09-07T05:55:08;15.00;;;13.50;;
49834;SDS011;35729;52.090;13.162;2023-09-07T05:57:37;15.45;;;13.85;;
49834;SDS011;35729;52.090;13.162;2023-09-07T06:00:06;14.02;;;12.65;;
49834;SDS011;35729;52.090;13.162;2023-09-07T06:02:35;14.70;;;13.30;;
49834;SDS011;35729;52.090;13.162;2023-09-07T06:05:04;14.48;;;12.98;;
49834;SDS011;35729;52.090;13.162;2023-09-07T06:07:33;14.20;;;12.75;;
49834;SDS011;35729;52.090;13.162;2023-09-07T06:10:05;17.45;;;12.98;;
49834;SDS011;35729;52.090;13.162;2023-09-07T06:12:34;15.15;;;12.77;;
49834;SDS011;35729;52.090;13.162;2023-09-07T06:15:03;13.90;;;12.50;;
49834;SDS011;35729;52.090;13.162;2023-09-07T06:17:33;14.43;;;12.75;;
49834;SDS011;35729;52.090;13.162;2023-09-07T06:20:01;14.40;;;12.95;;
49834;SDS011;35729;52.090;13.162;2023-09-07T06:22:31;15.80;;;13.25;;
49834;SDS011;35729;52.090;13.162;2023-09-07T06:24:59;15.73;;;13.55;;
49834;SDS011;35729;52.090;13.162;2023-09-07T06:27:30;15.38;;;13.57;;
49834;SDS011;35729;52.090;13.162;2023-09-07T06:29:59;15.80;;;13.32;;
49834;SDS011;35729;52.090;13.162;2023-09-07T06:32:28;20.70;;;14.38;;
49834;SDS011;35729;52.090;13.162;2023-09-07T06:34:56;14.52;;;12.80;;
49834;SDS011;35729;52.090;13.162;2023-09-07T06:37:24;15.18;;;12.88;;
49834;SDS011;35729;52.090;13.162;2023-09-07T06:39:53;13.85;;;12.45;;
49834;SDS011;35729;52.090;13.162;2023-09-07T06:42:22;14.50;;;12.95;;
49834;SDS011;35729;52.090;13.162;2023-09-07T06:44:53;14.43;;;13.02;;
49834;SDS011;35729;52.090;13.162;2023-09-07T06:47:21;15.98;;;13.60;;
49834;SDS011;35729;52.090;13.162;2023-09-07T06:49:50;14.63;;;13.02;;
49834;SDS011;35729;52.090;13.162;2023-09-07T06:52:19;19.67;;;15.65;;
49834;SDS011;35729;52.090;13.162;2023-09-07T06:54:48;15.27;;;12.48;;
49834;SDS011;35729;52.090;13.162;2023-09-07T06:57:19;13.35;;;12.07;;
49834;SDS011;35729;52.090;13.162;2023-09-07T06:59:47;15.25;;;13.50;;
49834;SDS011;35729;52.090;13.162;2023-09-07T07:02:19;18.75;;;13.45;;
49834;SDS011;35729;52.090;13.162;2023-09-07T07:04:47;13.65;;;12.07;;
49834;SDS011;35729;52.090;13.162;2023-09-07T07:07:16;15.23;;;13.45;;
49834;SDS011;35729;52.090;13.162;2023-09-07T07:09:44;15.23;;;12.82;;
49834;SDS011;35729;52.090;13.162;2023-09-07T07:12:13;14.75;;;12.90;;
49834;SDS011;35729;52.090;13.162;2023-09-07T07:14:41;15.30;;;12.95;;
49834;SDS011;35729;52.090;13.162;2023-09-07T07:17:10;16.45;;;13.10;;
49834;SDS011;35729;52.090;13.162;2023-09-07T07:19:41;13.90;;;12.32;;
49834;SDS011;35729;52.090;13.162;2023-09-07T07:22:10;15.27;;;13.68;;
49834;SDS011;35729;52.090;13.162;2023-09-07T07:24:39;16.63;;;14.57;;
49834;SDS011;35729;52.090;13.162;2023-09-07T07:27:07;13.82;;;12.32;;
49834;SDS011;35729;52.090;13.162;2023-09-07T07:29:36;14.75;;;12.80;;
49834;SDS011;35729;52.090;13.162;2023-09-07T07:32:05;14.98;;;13.40;;
49834;SDS011;35729;52.090;13.162;2023-09-07T07:34:33;15.70;;;14.15;;
49834;SDS011;35729;52.090;13.162;2023-09-07T07:37:04;13.68;;;12.13;;
49834;SDS011;35729;52.090;13.162;2023-09-07T07:39:33;17.80;;;12.25;;
49834;SDS011;35729;52.090;13.162;2023-09-07T07:42:02;19.58;;;14.00;;
49834;SDS011;35729;52.090;13.162;2023-09-07T07:44:31;17.88;;;12.63;;
49834;SDS011;35729;52.090;13.162;2023-09-07T07:46:59;12.50;;;11.25;;
49834;SDS011;35729;52.090;13.162;2023-09-07T07:49:28;16.10;;;11.48;;
49834;SDS011;35729;52.090;13.162;2023-09-07T07:51:57;15.55;;;12.13;;
49834;SDS011;35729;52.090;13.162;2023-09-07T07:54:29;12.73;;;11.43;;
49834;SDS011;35729;52.090;13.162;2023-09-07T07:56:57;11.88;;;10.68;;
49834;SDS011;35729;52.090;13.162;2023-09-07T07:59:25;11.80;;;10.57;;
49834;SDS011;35729;52.090;13.162;2023-09-07T08:01:54;11.65;;;10.32;;
49834;SDS011;35729;52.090;13.162;2023-09-07T08:04:22;9.65;;;8.45;;
49834;SDS011;35729;52.090;13.162;2023-09-07T08:06:51;11.10;;;9.85;;
49834;SDS011;35729;52.090;13.162;2023-09-07T08:09:23;9.95;;;8.93;;
49834;SDS011;35729;52.090;13.162;2023-09-07T08:11:54;9.50;;;8.50;;
49834;SDS011;35729;52.090;13.162;2023-09-07T08:14:23;13.80;;;8.55;;
49834;SDS011;35729;52.090;13.162;2023-09-07T08:16:53;9.77;;;8.07;;
49834;SDS011;35729;52.090;13.162;2023-09-07T08:19:21;9.45;;;8.45;;
49834;SDS011;35729;52.090;13.162;2023-09-07T08:21:50;9.32;;;7.75;;
49834;SDS011;35729;52.090;13.162;2023-09-07T08:24:18;8.55;;;7.60;;
49834;SDS011;35729;52.090;13.162;2023-09-07T08:26:47;9.95;;;7.68;;
49834;SDS011;35729;52.090;13.162;2023-09-07T08:29:19;9.38;;;7.43;;
49834;SDS011;35729;52.090;13.162;2023-09-07T08:31:51;8.70;;;6.88;;
49834;SDS011;35729;52.090;13.162;2023-09-07T08:34:20;9.02;;;7.20;;
49834;SDS011;35729;52.090;13.162;2023-09-07T08:36:49;13.35;;;7.47;;
49834;SDS011;35729;52.090;13.162;2023-09-07T08:39:20;8.85;;;7.70;;
49834;SDS011;35729;52.090;13.162;2023-09-07T08:41:48;9.07;;;7.07;;
49834;SDS011;35729;52.090;13.162;2023-09-07T08:44:19;8.60;;;6.65;;
49834;SDS011;35729;52.090;13.162;2023-09-07T08:46:49;8.48;;;6.53;;
49834;SDS011;35729;52.090;13.162;2023-09-07T08:49:19;8.02;;;6.72;;
49834;SDS011;35729;52.090;13.162;2023-09-07T08:51:48;10.40;;;6.40;;
49834;SDS011;35729;52.090;13.162;2023-09-07T08:54:17;7.10;;;6.20;;
49834;SDS011;35729;52.090;13.162;2023-09-07T08:56:47;10.43;;;6.68;;
49834;SDS011;35729;52.090;13.162;2023-09-07T08:59:15;8.63;;;6.57;;
49834;SDS011;35729;52.090;13.162;2023-09-07T09:01:46;8.70;;;5.95;;
49834;SDS011;35729;52.090;13.162;2023-09-07T09:04:15;9.48;;;6.63;;
49834;SDS011;35729;52.090;13.162;2023-09-07T09:06:43;9.93;;;5.78;;
49834;SDS011;35729;52.090;13.162;2023-09-07T09:09:21;8.88;;;6.30;;
49834;SDS011;35729;52.090;13.162;2023-09-07T09:11:50;9.48;;;7.15;;
49834;SDS011;35729;52.090;13.162;2023-09-07T09:14:19;7.60;;;5.63;;
49834;SDS011;35729;52.090;13.162;2023-09-07T09:16:52;7.68;;;6.00;;
49834;SDS011;35729;52.090;13.162;2023-09-07T09:19:29;8.18;;;6.20;;
49834;SDS011;35729;52.090;13.162;2023-09-07T09:21:58;9.13;;;6.45;;
49834;SDS011;35729;52.090;13.162;2023-09-07T09:24:31;7.32;;;5.35;;
49834;SDS011;35729;52.090;13.162;2023-09-07T09:27:00;6.38;;;5.78;;
49834;SDS011;35729;52.090;13.162;2023-09-07T09:29:29;6.18;;;5.30;;
49834;SDS011;35729;52.090;13.162;2023-09-07T09:32:02;6.90;;;5.55;;
49834;SDS011;35729;52.090;13.162;2023-09-07T09:34:32;8.98;;;7.22;;
49834;SDS011;35729;52.090;13.162;2023-09-07T09:37:03;6.75;;;5.50;;
49834;SDS011;35729;52.090;13.162;2023-09-07T09:39:31;7.10;;;5.55;;
49834;SDS011;35729;52.090;13.162;2023-09-07T09:42:00;6.00;;;5.35;;
49834;SDS011;35729;52.090;13.162;2023-09-07T09:44:29;6.60;;;5.25;;
49834;SDS011;35729;52.090;13.162;2023-09-07T09:47:04;6.32;;;5.60;;
49834;SDS011;35729;52.090;13.162;2023-09-07T09:49:33;6.20;;;5.43;;
49834;SDS011;35729;52.090;13.162;2023-09-07T09:52:03;8.55;;;5.30;;
49834;SDS011;35729;52.090;13.162;2023-09-07T09:54:33;8.00;;;5.53;;
49834;SDS011;35729;52.090;13.162;2023-09-07T09:57:03;5.80;;;4.47;;
49834;SDS011;35729;52.090;13.162;2023-09-07T09:59:31;6.32;;;5.05;;
49834;SDS011;35729;52.090;13.162;2023-09-07T10:02:00;5.22;;;4.72;;
49834;SDS011;35729;52.090;13.162;2023-09-07T10:04:33;7.27;;;4.80;;
49834;SDS011;35729;52.090;13.162;2023-09-07T10:07:02;8.02;;;5.22;;
49834;SDS011;35729;52.090;13.162;2023-09-07T10:09:32;8.15;;;4.70;;
49834;SDS011;35729;52.090;13.162;2023-09-07T10:12:02;6.18;;;4.75;;
49834;SDS011;35729;52.090;13.162;2023-09-07T10:14:39;6.72;;;4.88;;
49834;SDS011;35729;52.090;13.162;2023-09-07T10:17:20;5.35;;;4.70;;
49834;SDS011;35729;52.090;13.162;2023-09-07T10:19:50;5.80;;;4.50;;
49834;SDS011;35729;52.090;13.162;2023-09-07T10:22:30;7.20;;;5.22;;
49834;SDS011;35729;52.090;13.162;2023-09-07T10:24:59;5.95;;;4.43;;
49834;SDS011;35729;52.090;13.162;2023-09-07T10:27:36;6.00;;;4.63;;
49834;SDS011;35729;52.090;13.162;2023-09-07T10:30:09;7.97;;;4.68;;
49834;SDS011;35729;52.090;13.162;2023-09-07T10:32:46;6.25;;;4.50;;
49834;SDS011;35729;52.090;13.162;2023-09-07T10:35:15;8.10;;;4.97;;
49834;SDS011;35729;52.090;13.162;2023-09-07T10:37:44;7.28;;;5.03;;
49834;SDS011;35729;52.090;13.162;2023-09-07T10:40:18;6.28;;;3.97;;
49834;SDS011;35729;52.090;13.162;2023-09-07T10:42:47;4.88;;;4.38;;
49834;SDS011;35729;52.090;13.162;2023-09-07T10:45:16;6.28;;;4.53;;
49834;SDS011;35729;52.090;13.162;2023-09-07T10:47:47;6.57;;;4.50;;
49834;SDS011;35729;52.090;13.162;2023-09-07T10:50:15;5.30;;;4.10;;
49834;SDS011;35729;52.090;13.162;2023-09-07T10:52:44;5.97;;;4.60;;
49834;SDS011;35729;52.090;13.162;2023-09-07T10:55:12;7.00;;;5.28;;
49834;SDS011;35729;52.090;13.162;2023-09-07T10:57:41;5.50;;;4.78;;
49834;SDS011;35729;52.090;13.162;2023-09-07T11:00:11;5.65;;;4.10;;
49834;SDS011;35729;52.090;13.162;2023-09-07T11:02:41;6.93;;;4.80;;
49834;SDS011;35729;52.090;13.162;2023-09-07T11:05:13;6.53;;;4.43;;
49834;SDS011;35729;52.090;13.162;2023-09-07T11:07:43;6.68;;;4.47;;
49834;SDS011;35729;52.090;13.162;2023-09-07T11:10:12;7.80;;;4.20;;
49834;SDS011;35729;52.090;13.162;2023-09-07T11:12:40;6.20;;;4.38;;
49834;SDS011;35729;52.090;13.162;2023-09-07T11:15:09;5.93;;;4.10;;
49834;SDS011;35729;52.090;13.162;2023-09-07T11:17:38;5.55;;;4.20;;
49834;SDS011;35729;52.090;13.162;2023-09-07T11:20:07;5.38;;;4.10;;
49834;SDS011;35729;52.090;13.162;2023-09-07T11:22:39;6.78;;;4.60;;
49834;SDS011;35729;52.090;13.162;2023-09-07T11:25:09;5.67;;;4.43;;
49834;SDS011;35729;52.090;13.162;2023-09-07T11:27:44;4.60;;;3.97;;
49834;SDS011;35729;52.090;13.162;2023-09-07T11:30:19;5.68;;;4.68;;
49834;SDS011;35729;52.090;13.162;2023-09-07T11:32:49;4.97;;;4.13;;
49834;SDS011;35729;52.090;13.162;2023-09-07T11:35:17;4.65;;;3.92;;
49834;SDS011;35729;52.090;13.162;2023-09-07T11:37:53;6.00;;;3.72;;
49834;SDS011;35729;52.090;13.162;2023-09-07T11:40:22;6.18;;;3.55;;
49834;SDS011;35729;52.090;13.162;2023-09-07T11:42:51;6.30;;;3.80;;
49834;SDS011;35729;52.090;13.162;2023-09-07T11:45:19;5.03;;;4.25;;
49834;SDS011;35729;52.090;13.162;2023-09-07T11:47:48;7.47;;;3.65;;
49834;SDS011;35729;52.090;13.162;2023-09-07T11:50:16;4.65;;;3.88;;
49834;SDS011;35729;52.090;13.162;2023-09-07T11:52:45;7.90;;;3.85;;
49834;SDS011;35729;52.090;13.162;2023-09-07T11:55:17;5.25;;;3.80;;
49834;SDS011;35729;52.090;13.162;2023-09-07T11:57:45;3.97;;;3.42;;
49834;SDS011;35729;52.090;13.162;2023-09-07T12:00:14;5.88;;;3.38;;
49834;SDS011;35729;52.090;13.162;2023-09-07T12:02:43;5.20;;;4.00;;
49834;SDS011;35729;52.090;13.162;2023-09-07T12:05:12;4.50;;;4.03;;
49834;SDS011;35729;52.090;13.162;2023-09-07T12:07:41;6.45;;;4.03;;
49834;SDS011;35729;52.090;13.162;2023-09-07T12:10:11;6.28;;;4.53;;
49834;SDS011;35729;52.090;13.162;2023-09-07T12:12:42;5.10;;;3.78;;
49834;SDS011;35729;52.090;13.162;2023-09-07T12:15:11;5.88;;;4.13;;
49834;SDS011;35729;52.090;13.162;2023-09-07T12:17:40;5.68;;;3.67;;
49834;SDS011;35729;52.090;13.162;2023-09-07T12:20:09;6.20;;;4.07;;
49834;SDS011;35729;52.090;13.162;2023-09-07T12:22:39;4.80;;;3.33;;
49834;SDS011;35729;52.090;13.162;2023-09-07T12:25:08;8.20;;;4.18;;
49834;SDS011;35729;52.090;13.162;2023-09-07T12:27:37;4.85;;;3.72;;
49834;SDS011;35729;52.090;13.162;2023-09-07T12:30:08;6.40;;;3.25;;
49834;SDS011;35729;52.090;13.162;2023-09-07T12:32:38;4.78;;;3.40;;
49834;SDS011;35729;52.090;13.162;2023-09-07T12:35:07;4.25;;;3.17;;
49834;SDS011;35729;52.090;13.162;2023-09-07T12:37:36;6.78;;;3.17;;
49834;SDS011;35729;52.090;13.162;2023-09-07T12:40:05;5.45;;;2.83;;
49834;SDS011;35729;52.090;13.162;2023-09-07T12:45:12;3.92;;;2.70;;
49834;SDS011;35729;52.090;13.162;2023-09-07T12:47:41;3.92;;;2.55;;
49834;SDS011;35729;52.090;13.162;2023-09-07T12:50:09;2.72;;;2.33;;
49834;SDS011;35729;52.090;13.162;2023-09-07T12:52:38;3.20;;;2.53;;
49834;SDS011;35729;52.090;13.162;2023-09-07T12:55:06;3.15;;;2.25;;
49834;SDS011;35729;52.090;13.162;2023-09-07T12:57:35;3.33;;;2.83;;
49834;SDS011;35729;52.090;13.162;2023-09-07T13:00:04;3.80;;;2.97;;
49834;SDS011;35729;52.090;13.162;2023-09-07T13:02:37;4.93;;;2.70;;
49834;SDS011;35729;52.090;13.162;2023-09-07T13:05:06;4.15;;;2.90;;
49834;SDS011;35729;52.090;13.162;2023-09-07T13:07:34;3.92;;;3.38;;
49834;SDS011;35729;52.090;13.162;2023-09-07T13:10:04;5.60;;;3.53;;
49834;SDS011;35729;52.090;13.162;2023-09-07T13:12:33;5.13;;;3.72;;
49834;SDS011;35729;52.090;13.162;2023-09-07T13:15:02;4.15;;;3.60;;
49834;SDS011;35729;52.090;13.162;2023-09-07T13:17:31;5.38;;;3.38;;
49834;SDS011;35729;52.090;13.162;2023-09-07T13:20:02;4.07;;;3.42;;
49834;SDS011;35729;52.090;13.162;2023-09-07T13:22:30;6.75;;;3.30;;
49834;SDS011;35729;52.090;13.162;2023-09-07T13:24:59;4.63;;;3.25;;
49834;SDS011;35729;52.090;13.162;2023-09-07T13:27:27;5.07;;;3.78;;
49834;SDS011;35729;52.090;13.162;2023-09-07T13:29:56;6.47;;;3.67;;
49834;SDS011;35729;52.090;13.162;2023-09-07T13:32:26;3.60;;;3.20;;
49834;SDS011;35729;52.090;13.162;2023-09-07T13:34:55;7.57;;;3.67;;
49834;SDS011;35729;52.090;13.162;2023-09-07T13:37:26;4.28;;;3.65;;
49834;SDS011;35729;52.090;13.162;2023-09-07T13:39:55;3.28;;;2.92;;
49834;SDS011;35729;52.090;13.162;2023-09-07T13:42:24;4.47;;;3.05;;
49834;SDS011;35729;52.090;13.162;2023-09-07T13:44:54;3.10;;;2.75;;
49834;SDS011;35729;52.090;13.162;2023-09-07T13:47:22;4.32;;;3.08;;
49834;SDS011;35729;52.090;13.162;2023-09-07T13:49:57;4.35;;;2.80;;
49834;SDS011;35729;52.090;13.162;2023-09-07T13:52:28;4.50;;;3.15;;
49834;SDS011;35729;52.090;13.162;2023-09-07T13:54:57;4.47;;;3.13;;
49834;SDS011;35729;52.090;13.162;2023-09-07T13:57:25;4.00;;;2.88;;
49834;SDS011;35729;52.090;13.162;2023-09-07T13:59:54;4.13;;;3.00;;
49834;SDS011;35729;52.090;13.162;2023-09-07T14:02:22;5.53;;;3.22;;
49834;SDS011;35729;52.090;13.162;2023-09-07T14:04:51;5.80;;;3.28;;
49834;SDS011;35729;52.090;13.162;2023-09-07T14:07:19;4.45;;;3.47;;
49834;SDS011;35729;52.090;13.162;2023-09-07T14:09:53;6.88;;;3.42;;
49834;SDS011;35729;52.090;13.162;2023-09-07T14:12:22;4.10;;;3.33;;
49834;SDS011;35729;52.090;13.162;2023-09-07T14:14:50;4.13;;;2.92;;
49834;SDS011;35729;52.090;13.162;2023-09-07T14:17:19;5.10;;;2.90;;
49834;SDS011;35729;52.090;13.162;2023-09-07T14:19:47;5.63;;;3.00;;
49834;SDS011;35729;52.090;13.162;2023-09-07T14:22:16;5.65;;;3.00;;
49834;SDS011;35729;52.090;13.162;2023-09-07T14:24:44;5.07;;;2.88;;
49834;SDS011;35729;52.090;13.162;2023-09-07T14:27:15;4.10;;;3.22;;
49834;SDS011;35729;52.090;13.162;2023-09-07T14:29:43;5.03;;;3.30;;
49834;SDS011;35729;52.090;13.162;2023-09-07T14:32:12;4.75;;;2.92;;
49834;SDS011;35729;52.090;13.162;2023-09-07T14:34:40;3.13;;;2.67;;
49834;SDS011;35729;52.090;13.162;2023-09-07T14:37:09;4.75;;;2.97;;
49834;SDS011;35729;52.090;13.162;2023-09-07T14:39:38;3.95;;;3.50;;
49834;SDS011;35729;52.090;13.162;2023-09-07T14:42:14;4.05;;;3.65;;